createdAt,value
2023-04-03T13:02:47.652Z,6.60
2023-04-03T13:05:19.818Z,10.10
2023-04-03T13:08:11.213Z,7.70
2023-04-03T13:10:51.081Z,6.80
2023-04-03T13:13:18.349Z,9.00
2023-04-03T13:15:51.545Z,8.30
2023-04-03T13:18:30.491Z,7.50
2023-04-03T13:21:08.544Z,6.90
2023-04-03T13:23:39.582Z,6.60
2023-04-03T13:26:08.502Z,7.00
2023-04-03T13:28:37.822Z,6.90
2023-04-03T13:31:11.876Z,6.50
2023-04-03T13:33:44.351Z,6.60
2023-04-03T13:36:21.801Z,7.80
2023-04-03T13:39:04.242Z,7.70
2023-04-03T13:41:31.448Z,7.20
2023-04-03T13:44:23.471Z,6.90
2023-04-03T13:47:15.769Z,7.00
2023-04-03T13:50:23.873Z,6.60
2023-04-03T13:52:56.420Z,6.30
2023-04-03T13:55:31.515Z,6.20
2023-04-03T13:58:11.063Z,6.20
2023-04-03T14:00:57.814Z,6.00
2023-04-03T14:03:35.512Z,5.90
2023-04-03T14:06:02.862Z,6.00
2023-04-03T14:08:42.172Z,6.00
2023-04-03T14:11:21.962Z,6.00
2023-04-03T14:13:49.859Z,6.20
2023-04-03T14:16:24.736Z,9.60
2023-04-03T14:18:54.248Z,13.70
2023-04-03T14:21:22.975Z,9.50
2023-04-03T14:23:51.568Z,7.60
2023-04-03T14:26:22.274Z,6.90
2023-04-03T14:28:52.642Z,6.40
2023-04-03T14:31:20.401Z,10.40
2023-04-03T14:33:47.788Z,12.40
2023-04-03T14:36:23.726Z,12.80
2023-04-03T14:38:52.364Z,10.20
2023-04-03T14:41:23.443Z,10.90
2023-04-03T14:43:52.181Z,11.50
2023-04-03T14:46:26.726Z,9.40
2023-04-03T14:48:58.196Z,7.40
2023-04-03T14:51:26.456Z,9.70
2023-04-03T14:53:53.844Z,9.50
2023-04-03T14:56:27.816Z,7.50
2023-04-03T14:59:03.065Z,7.20
2023-04-03T15:01:31.542Z,7.00
2023-04-03T15:03:58.814Z,7.00
2023-04-03T15:06:27.251Z,7.20
2023-04-03T15:08:54.406Z,7.10
2023-04-03T15:11:22.451Z,7.00
2023-04-03T15:13:49.614Z,6.70
2023-04-03T15:16:21.214Z,6.70
2023-04-03T15:18:49.052Z,6.80
2023-04-03T15:21:16.401Z,6.70
2023-04-03T15:23:44.570Z,6.90
2023-04-03T15:26:11.948Z,6.80
2023-04-03T15:28:45.042Z,6.70
2023-04-03T15:31:12.461Z,6.30
2023-04-03T15:33:40.107Z,6.10
2023-04-03T15:36:17.216Z,6.10
2023-04-03T15:38:54.925Z,6.30
2023-04-03T15:41:22.154Z,6.20
2023-04-03T15:43:49.408Z,6.00
2023-04-03T15:46:16.738Z,6.00
2023-04-03T15:48:45.038Z,5.90
2023-04-03T15:51:12.318Z,5.70
2023-04-03T15:53:40.523Z,5.80
2023-04-03T15:56:10.799Z,5.70
2023-04-03T15:58:38.207Z,5.70
2023-04-03T16:01:06.521Z,5.80
2023-04-03T16:03:34.016Z,5.80
2023-04-03T16:06:02.982Z,5.80
2023-04-03T16:08:30.458Z,5.70
2023-04-03T16:10:57.670Z,5.60
2023-04-03T16:13:24.931Z,5.30
2023-04-03T16:15:52.226Z,5.10
2023-04-03T16:18:19.736Z,5.10
2023-04-03T16:20:48.320Z,5.00
2023-04-03T16:23:15.765Z,4.80
2023-04-03T16:25:47.429Z,5.00
2023-04-03T16:28:15.672Z,5.00
2023-04-03T16:30:44.252Z,5.00
2023-04-03T16:33:13.310Z,4.90
2023-04-03T16:35:43.049Z,5.00
2023-04-03T16:38:10.633Z,4.80
2023-04-03T16:40:39.004Z,4.70
2023-04-03T16:43:06.514Z,5.00
2023-04-03T16:45:33.800Z,5.00
2023-04-03T16:48:01.116Z,4.90
2023-04-03T16:50:28.270Z,4.80
2023-04-03T16:52:55.655Z,4.70
2023-04-03T16:55:23.954Z,4.70
